createdAt,value
2022-11-13T00:02:26.872Z,54.63
2022-11-13T00:04:54.224Z,54.82
2022-11-13T00:07:21.305Z,54.56
2022-11-13T00:09:48.357Z,54.37
2022-11-13T00:12:16.818Z,54.06
2022-11-13T00:14:44.458Z,54.22
2022-11-13T00:17:11.366Z,54.43
2022-11-13T00:19:38.361Z,54.79
2022-11-13T00:22:05.274Z,54.73
2022-11-13T00:24:32.241Z,54.55
2022-11-13T00:26:59.214Z,54.43
2022-11-13T00:29:27.523Z,54.24
2022-11-13T00:31:54.621Z,54.04
2022-11-13T00:37:08.498Z,53.86
2022-11-13T00:39:35.460Z,53.74
2022-11-13T00:42:02.483Z,53.95
2022-11-13T00:44:30.787Z,53.46
2022-11-13T00:46:57.751Z,53.53
2022-11-13T00:49:24.748Z,53.19
2022-11-13T00:51:51.700Z,53.17
2022-11-13T00:54:18.989Z,52.83
2022-11-13T00:56:45.944Z,53.10
2022-11-13T00:59:13.022Z,52.89
2022-11-13T01:01:41.371Z,52.75
2022-11-13T01:04:08.351Z,53.06
2022-11-13T01:06:35.332Z,53.12
2022-11-13T01:09:02.341Z,53.20
2022-11-13T01:11:31.235Z,52.93
2022-11-13T01:13:58.734Z,52.98
2022-11-13T01:16:27.651Z,52.99
2022-11-13T01:18:57.031Z,53.37
2022-11-13T01:21:27.345Z,53.82
2022-11-13T01:23:55.033Z,53.77
2022-11-13T01:26:25.895Z,53.54
2022-11-13T01:28:54.040Z,53.57
2022-11-13T01:31:24.572Z,54.11
2022-11-13T01:33:51.972Z,54.30
2022-11-13T01:36:26.007Z,53.85
2022-11-13T01:38:53.525Z,53.96
2022-11-13T01:41:24.819Z,53.92
2022-11-13T01:43:54.416Z,54.37
2022-11-13T01:46:26.736Z,54.16
2022-11-13T01:49:13.166Z,54.31
2022-11-13T01:51:49.107Z,54.32
2022-11-13T01:54:22.212Z,54.15
2022-11-13T01:56:51.168Z,54.14
2022-11-13T01:59:24.163Z,54.16
2022-11-13T02:01:51.348Z,54.31
2022-11-13T02:04:18.407Z,54.44
2022-11-13T02:06:51.811Z,54.04
2022-11-13T02:09:23.386Z,54.10
2022-11-13T02:11:52.151Z,54.02
2022-11-13T02:14:22.704Z,54.14
2022-11-13T02:16:56.209Z,54.07
2022-11-13T02:19:29.728Z,53.88
2022-11-13T02:22:10.986Z,54.01
2022-11-13T02:24:45.279Z,54.05
2022-11-13T02:27:23.084Z,54.21
2022-11-13T02:29:50.065Z,54.17
2022-11-13T02:32:17.096Z,54.07
2022-11-13T02:34:44.071Z,54.04
2022-11-13T02:37:11.495Z,54.04
2022-11-13T02:39:40.399Z,54.06
2022-11-13T02:42:07.331Z,53.74
2022-11-13T02:44:34.347Z,53.60
2022-11-13T02:47:01.302Z,53.38
2022-11-13T02:49:28.218Z,53.53
2022-11-13T02:51:55.167Z,53.59
2022-11-13T02:54:22.205Z,53.52
2022-11-13T02:56:50.524Z,53.91
2022-11-13T02:59:17.501Z,53.98
2022-11-13T03:01:44.489Z,53.95
2022-11-13T03:04:11.459Z,53.90
2022-11-13T03:06:38.479Z,54.28
2022-11-13T03:09:05.460Z,54.49
2022-11-13T03:11:32.446Z,54.50
2022-11-13T03:14:00.745Z,54.41
2022-11-13T03:16:28.480Z,54.35
2022-11-13T03:18:56.328Z,54.33
2022-11-13T03:21:24.221Z,54.25
2022-11-13T03:23:51.220Z,54.60
2022-11-13T03:26:18.326Z,54.48
2022-11-13T03:28:45.858Z,54.48
2022-11-13T03:31:14.227Z,54.44
2022-11-13T03:33:41.569Z,54.67
2022-11-13T03:36:09.086Z,54.92
2022-11-13T03:38:36.442Z,54.73
2022-11-13T03:41:03.954Z,54.37
2022-11-13T03:43:31.386Z,54.29
2022-11-13T03:45:58.375Z,54.41
2022-11-13T03:48:26.939Z,54.12
2022-11-13T03:50:55.846Z,54.52
2022-11-13T03:53:22.833Z,54.61
2022-11-13T03:55:49.857Z,54.50
2022-11-13T03:58:17.449Z,54.34
2022-11-13T04:00:45.942Z,54.36
2022-11-13T04:03:12.902Z,54.33
2022-11-13T04:05:43.024Z,54.57
2022-11-13T04:08:10.661Z,54.23
2022-11-13T04:10:37.641Z,54.43
2022-11-13T04:13:04.650Z,54.66
2022-11-13T04:15:31.627Z,54.38
2022-11-13T04:17:58.643Z,54.33
2022-11-13T04:20:27.763Z,54.43
2022-11-13T04:22:56.697Z,54.50
2022-11-13T04:25:23.874Z,54.11
2022-11-13T04:27:51.614Z,54.22
2022-11-13T04:30:19.145Z,54.01
2022-11-13T04:32:46.110Z,54.17
2022-11-13T04:35:13.096Z,54.11
2022-11-13T04:37:40.147Z,53.96
2022-11-13T04:40:10.942Z,53.84
2022-11-13T04:42:49.873Z,54.07
2022-11-13T04:45:18.330Z,53.98
2022-11-13T04:47:45.340Z,54.42
2022-11-13T04:50:14.146Z,54.53
2022-11-13T04:52:41.245Z,54.13
2022-11-13T04:55:11.532Z,54.39
2022-11-13T04:57:39.336Z,54.17
2022-11-13T05:00:09.364Z,54.04
2022-11-13T05:02:36.639Z,54.43
2022-11-13T05:05:05.506Z,54.62
2022-11-13T05:07:32.658Z,54.74
2022-11-13T05:09:59.641Z,55.06
2022-11-13T05:12:27.917Z,54.91
2022-11-13T05:14:54.860Z,55.09
2022-11-13T05:17:23.118Z,54.84
2022-11-13T05:19:50.049Z,54.85
2022-11-13T05:22:16.976Z,55.04
2022-11-13T05:24:43.897Z,55.10
2022-11-13T05:27:16.871Z,55.30
2022-11-13T05:29:45.681Z,55.43
2022-11-13T05:32:12.717Z,55.58
2022-11-13T05:34:39.688Z,55.31
2022-11-13T05:37:06.643Z,55.74
2022-11-13T05:39:33.560Z,55.99
2022-11-13T05:42:00.482Z,56.33
2022-11-13T05:44:27.397Z,56.17
2022-11-13T05:46:55.688Z,56.01
2022-11-13T05:49:22.612Z,56.08
2022-11-13T05:51:49.567Z,56.14
2022-11-13T05:54:16.573Z,56.14
2022-11-13T05:56:43.562Z,55.85
2022-11-13T05:59:10.623Z,56.12
2022-11-13T06:01:40.482Z,55.50
2022-11-13T06:04:10.663Z,55.60
2022-11-13T06:06:37.698Z,55.94
2022-11-13T06:09:06.649Z,55.86
2022-11-13T06:11:34.034Z,55.99
2022-11-13T06:14:01.758Z,55.69
2022-11-13T06:16:33.918Z,55.48
2022-11-13T06:19:03.677Z,55.32
2022-11-13T06:21:35.644Z,55.32
2022-11-13T06:24:04.050Z,55.59
2022-11-13T06:26:33.861Z,55.45
2022-11-13T06:29:03.615Z,55.59
2022-11-13T06:31:34.761Z,55.75
2022-11-13T06:34:02.010Z,55.78
2022-11-13T06:36:33.520Z,56.09
2022-11-13T06:39:01.042Z,56.20
2022-11-13T06:41:31.281Z,56.29
2022-11-13T06:44:02.787Z,56.00
2022-11-13T06:46:31.419Z,56.20
2022-11-13T06:48:59.130Z,56.32
2022-11-13T06:51:28.937Z,56.38
2022-11-13T06:53:58.314Z,56.24
2022-11-13T06:56:26.224Z,56.36
2022-11-13T06:58:55.016Z,56.78
2022-11-13T07:01:25.406Z,56.80
2022-11-13T07:03:53.063Z,56.60
2022-11-13T07:06:24.085Z,56.36
2022-11-13T07:08:52.379Z,56.57
2022-11-13T07:11:23.698Z,56.45
2022-11-13T07:13:51.101Z,56.63
2022-11-13T07:16:18.693Z,56.47
2022-11-13T07:18:50.338Z,56.47
2022-11-13T07:21:17.443Z,56.59
2022-11-13T07:23:44.497Z,56.30
2022-11-13T07:26:11.686Z,56.06
2022-11-13T07:28:40.218Z,56.38
2022-11-13T07:31:09.336Z,56.19
2022-11-13T07:33:36.362Z,56.13
2022-11-13T07:36:03.918Z,56.44
2022-11-13T07:38:31.987Z,56.88
2022-11-13T07:40:59.858Z,57.03
2022-11-13T07:43:27.498Z,56.66
2022-11-13T07:45:58.493Z,56.75
2022-11-13T07:48:27.874Z,56.41
2022-11-13T07:50:59.327Z,56.38
2022-11-13T07:53:26.275Z,55.97
2022-11-13T07:55:53.321Z,55.56
2022-11-13T07:58:20.274Z,55.54
2022-11-13T08:00:47.412Z,55.34
2022-11-13T08:03:18.644Z,55.72
2022-11-13T08:05:45.609Z,55.78
2022-11-13T08:08:14.567Z,56.16
2022-11-13T08:10:42.025Z,56.60
2022-11-13T08:13:10.908Z,57.26
2022-11-13T08:15:38.689Z,57.59
2022-11-13T08:18:06.588Z,57.80
2022-11-13T08:20:34.918Z,57.77
2022-11-13T08:23:04.218Z,57.83
2022-11-13T08:25:33.278Z,57.44
2022-11-13T08:28:00.717Z,57.82
2022-11-13T08:30:29.000Z,57.21
2022-11-13T08:32:56.338Z,57.16
2022-11-13T08:35:29.073Z,56.93
2022-11-13T08:38:02.196Z,56.59
2022-11-13T08:40:29.804Z,56.37
2022-11-13T08:42:59.869Z,56.21
2022-11-13T08:45:27.337Z,56.15
2022-11-13T08:47:54.482Z,56.09
2022-11-13T08:50:21.516Z,55.58
2022-11-13T08:52:53.276Z,55.42
2022-11-13T08:55:22.222Z,55.31
2022-11-13T08:57:49.516Z,55.38
2022-11-13T09:00:17.964Z,55.43
2022-11-13T09:02:45.205Z,55.23
2022-11-13T09:05:12.288Z,55.13
2022-11-13T09:07:39.259Z,55.12
2022-11-13T09:10:07.929Z,54.74
2022-11-13T09:12:36.224Z,54.86
2022-11-13T09:15:03.416Z,54.90
2022-11-13T09:17:30.701Z,54.70
2022-11-13T09:20:03.529Z,54.60
2022-11-13T09:22:31.069Z,54.25
2022-11-13T09:24:58.001Z,52.88
2022-11-13T09:27:24.944Z,52.06
2022-11-13T09:29:55.684Z,52.04
2022-11-13T09:32:22.951Z,51.59
2022-11-13T09:34:49.881Z,51.25
2022-11-13T09:37:17.023Z,51.24
2022-11-13T09:39:43.938Z,51.05
2022-11-13T09:42:18.869Z,51.09
2022-11-13T09:44:53.596Z,50.83
2022-11-13T09:47:27.595Z,50.12
2022-11-13T09:50:02.552Z,49.78
2022-11-13T09:52:36.859Z,49.83
2022-11-13T09:55:05.349Z,49.82
2022-11-13T09:57:42.739Z,48.88
2022-11-13T10:00:15.247Z,48.59
2022-11-13T10:02:58.268Z,47.95
2022-11-13T10:05:43.040Z,47.41
2022-11-13T10:08:17.971Z,46.65
2022-11-13T10:10:55.411Z,46.35
2022-11-13T10:13:38.109Z,46.35
2022-11-13T10:16:20.838Z,46.51
2022-11-13T10:18:50.827Z,46.72
2022-11-13T10:21:32.151Z,46.70
2022-11-13T10:24:14.388Z,46.90
2022-11-13T10:26:41.588Z,46.72
2022-11-13T10:29:13.145Z,46.95
2022-11-13T10:31:46.969Z,46.79
2022-11-13T10:34:17.834Z,46.86
2022-11-13T10:37:03.059Z,46.98
2022-11-13T10:39:30.042Z,47.07
2022-11-13T10:41:57.027Z,46.60
2022-11-13T10:44:32.426Z,46.78
2022-11-13T10:47:13.573Z,47.07
2022-11-13T10:49:41.939Z,47.06
2022-11-13T10:52:19.494Z,46.79
2022-11-13T10:54:47.333Z,47.09
2022-11-13T10:57:33.120Z,46.83
2022-11-13T11:00:00.914Z,47.33
2022-11-13T11:02:29.039Z,47.58
2022-11-13T11:05:05.970Z,47.52
2022-11-13T11:07:41.383Z,47.37
2022-11-13T11:10:23.006Z,47.48
2022-11-13T11:12:55.197Z,47.67
2022-11-13T11:15:28.287Z,47.66
2022-11-13T11:18:02.374Z,47.69
2022-11-13T11:20:44.784Z,47.88
2022-11-13T11:23:24.461Z,47.79
2022-11-13T11:25:58.339Z,47.61
2022-11-13T11:28:35.809Z,47.21
2022-11-13T11:31:12.980Z,47.19
2022-11-13T11:33:52.663Z,47.19
2022-11-13T11:36:32.253Z,47.30
2022-11-13T11:39:20.401Z,47.01
2022-11-13T11:41:58.458Z,46.70
2022-11-13T11:44:33.401Z,46.19
2022-11-13T11:47:00.403Z,46.04
2022-11-13T11:49:27.520Z,46.14
2022-11-13T11:52:11.817Z,46.20
2022-11-13T11:54:43.679Z,46.39
2022-11-13T11:57:39.504Z,46.78
2022-11-13T12:00:12.389Z,46.83
2022-11-13T12:03:24.399Z,47.06
2022-11-13T12:06:11.697Z,46.93
2022-11-13T12:08:52.849Z,47.13
2022-11-13T12:11:29.668Z,47.19
2022-11-13T12:14:09.372Z,47.28
2022-11-13T12:16:49.871Z,47.41
2022-11-13T12:19:31.492Z,47.09
2022-11-13T12:22:12.484Z,47.30
2022-11-13T12:25:03.584Z,47.38
2022-11-13T12:27:38.359Z,47.26
2022-11-13T12:30:16.321Z,47.52
2022-11-13T12:33:06.662Z,47.49
2022-11-13T12:35:34.765Z,47.29
2022-11-13T12:38:14.075Z,47.17
2022-11-13T12:40:55.197Z,47.22
2022-11-13T12:43:51.562Z,47.28
2022-11-13T12:46:19.196Z,47.55
2022-11-13T12:48:47.927Z,47.70
2022-11-13T12:51:17.445Z,47.17
2022-11-13T12:53:48.400Z,47.23
2022-11-13T12:56:32.133Z,47.06
2022-11-13T12:59:33.441Z,46.96
2022-11-13T13:02:04.614Z,46.73
2022-11-13T13:05:01.701Z,46.65
2022-11-13T13:08:04.592Z,46.84
2022-11-13T13:10:49.506Z,46.93
2022-11-13T13:13:28.203Z,47.01
2022-11-13T13:15:58.391Z,46.93
2022-11-13T13:18:30.333Z,46.68
2022-11-13T13:21:09.820Z,47.30
2022-11-13T13:23:39.630Z,46.81
2022-11-13T13:26:15.919Z,46.68
2022-11-13T13:28:50.335Z,46.59
2022-11-13T13:31:37.098Z,46.72
2022-11-13T13:34:31.098Z,47.01
2022-11-13T13:37:18.436Z,47.07
2022-11-13T13:40:02.600Z,46.83
2022-11-13T13:42:53.090Z,47.10
2022-11-13T13:45:36.976Z,46.89
2022-11-13T13:48:11.273Z,47.35
2022-11-13T13:50:45.051Z,47.53
2022-11-13T13:53:18.260Z,47.60
2022-11-13T13:55:50.593Z,47.52
2022-11-13T13:58:24.940Z,47.45
2022-11-13T14:01:17.788Z,47.55
2022-11-13T14:03:45.704Z,47.48
2022-11-13T14:06:21.292Z,47.37
2022-11-13T14:08:48.485Z,47.31
2022-11-13T14:11:19.132Z,47.30
2022-11-13T14:13:46.195Z,47.84
2022-11-13T14:16:14.557Z,47.72
2022-11-13T14:18:42.219Z,48.01
2022-11-13T14:21:16.502Z,48.21
2022-11-13T14:23:48.092Z,48.46
2022-11-13T14:26:15.526Z,48.82
2022-11-13T14:28:53.682Z,48.87
2022-11-13T14:31:29.742Z,49.00
2022-11-13T14:34:00.925Z,49.13
2022-11-13T14:36:32.027Z,49.04
2022-11-13T14:38:59.802Z,49.01
2022-11-13T14:41:34.221Z,49.69
2022-11-13T14:44:02.109Z,49.71
2022-11-13T14:46:35.953Z,49.80
2022-11-13T14:49:03.407Z,50.10
2022-11-13T14:51:34.041Z,50.18
2022-11-13T14:54:07.674Z,51.06
2022-11-13T14:56:38.938Z,51.07
2022-11-13T14:59:16.982Z,51.50
2022-11-13T15:01:56.490Z,51.53
2022-11-13T15:04:24.914Z,51.94
2022-11-13T15:06:55.633Z,52.31
2022-11-13T15:09:24.543Z,52.27
2022-11-13T15:11:51.965Z,52.39
2022-11-13T15:14:21.202Z,52.51
2022-11-13T15:16:52.208Z,52.73
2022-11-13T15:19:30.785Z,52.60
2022-11-13T15:22:26.682Z,52.72
2022-11-13T15:24:44.965Z,53.11
2022-11-13T15:27:16.174Z,53.39
2022-11-13T15:29:44.478Z,53.71
2022-11-13T15:32:14.381Z,53.78
2022-11-13T15:34:43.220Z,53.86
2022-11-13T15:37:13.052Z,54.08
2022-11-13T15:39:40.521Z,53.75
2022-11-13T15:42:14.750Z,53.73
2022-11-13T15:44:41.749Z,53.89
2022-11-13T15:47:28.147Z,53.65
2022-11-13T15:50:12.746Z,53.99
2022-11-13T15:52:44.381Z,54.17
2022-11-13T15:55:27.375Z,54.68
2022-11-13T15:57:55.521Z,54.57
2022-11-13T16:00:25.397Z,54.78
2022-11-13T16:02:55.148Z,54.95
2022-11-13T16:05:25.909Z,55.20
2022-11-13T16:07:53.947Z,55.17
2022-11-13T16:10:24.722Z,55.40
2022-11-13T16:12:52.451Z,55.76
2022-11-13T16:15:19.858Z,55.92
2022-11-13T16:17:50.536Z,56.34
2022-11-13T16:20:18.789Z,56.68
2022-11-13T16:22:47.294Z,57.21
2022-11-13T16:25:17.337Z,57.44
2022-11-13T16:27:45.562Z,57.33
2022-11-13T16:30:19.912Z,57.16
2022-11-13T16:32:47.428Z,57.80
2022-11-13T16:35:16.090Z,58.32
2022-11-13T16:37:43.184Z,58.23
2022-11-13T16:40:21.438Z,58.26
2022-11-13T16:42:48.676Z,58.40
2022-11-13T16:45:17.357Z,58.14
2022-11-13T16:47:45.723Z,58.73
2022-11-13T16:50:16.622Z,59.63
2022-11-13T16:52:43.605Z,59.91
2022-11-13T16:55:10.598Z,59.79
2022-11-13T16:57:39.840Z,59.75
2022-11-13T17:00:12.010Z,59.80
2022-11-13T17:02:39.157Z,59.97
2022-11-13T17:05:06.853Z,60.14
2022-11-13T17:07:33.916Z,59.81
2022-11-13T17:10:28.873Z,59.71
2022-11-13T17:12:54.084Z,59.40
2022-11-13T17:15:21.642Z,59.48
2022-11-13T17:17:49.006Z,59.37
2022-11-13T17:20:19.040Z,59.73
2022-11-13T17:22:48.452Z,59.57
2022-11-13T17:25:17.127Z,59.59
2022-11-13T17:27:44.387Z,59.50
2022-11-13T17:30:14.325Z,59.37
2022-11-13T17:32:41.359Z,59.22
2022-11-13T17:35:12.781Z,59.20
2022-11-13T17:37:40.076Z,59.12
2022-11-13T17:40:09.347Z,59.14
2022-11-13T17:42:36.339Z,58.92
2022-11-13T17:45:03.816Z,59.03
2022-11-13T17:47:33.821Z,59.20
2022-11-13T17:50:06.678Z,59.19
2022-11-13T17:52:34.589Z,59.06
2022-11-13T17:55:05.727Z,59.07
2022-11-13T17:57:33.260Z,59.03
2022-11-13T18:00:00.222Z,58.95
2022-11-13T18:02:27.270Z,58.82
2022-11-13T18:04:58.157Z,58.92
2022-11-13T18:07:26.390Z,58.94
2022-11-13T18:09:53.395Z,58.93
2022-11-13T18:12:20.325Z,58.99
2022-11-13T18:14:52.190Z,59.13
2022-11-13T18:17:19.324Z,59.19
2022-11-13T18:19:46.669Z,59.56
2022-11-13T18:22:15.305Z,59.63
2022-11-13T18:24:42.678Z,59.75
2022-11-13T18:27:10.525Z,59.78
2022-11-13T18:29:37.503Z,59.58
2022-11-13T18:32:04.713Z,59.45
2022-11-13T18:34:32.400Z,59.21
2022-11-13T18:36:59.499Z,59.07
2022-11-13T18:39:27.840Z,59.00
2022-11-13T18:41:58.999Z,58.98
2022-11-13T18:44:26.219Z,58.86
2022-11-13T18:46:53.285Z,58.73
2022-11-13T18:49:20.337Z,58.76
2022-11-13T18:51:47.287Z,58.64
2022-11-13T18:54:14.815Z,58.44
2022-11-13T18:56:43.109Z,58.43
2022-11-13T18:59:11.027Z,58.35
2022-11-13T19:01:39.801Z,58.51
2022-11-13T19:04:22.766Z,58.62
2022-11-13T19:06:51.041Z,58.52
2022-11-13T19:09:19.144Z,58.66
2022-11-13T19:11:47.748Z,58.59
2022-11-13T19:14:17.587Z,58.58
2022-11-13T19:16:45.024Z,58.62
2022-11-13T19:19:18.149Z,58.67
2022-11-13T19:21:46.247Z,58.56
2022-11-13T19:24:14.916Z,58.38
2022-11-13T19:26:43.211Z,58.49
2022-11-13T19:29:11.933Z,58.25
2022-11-13T19:31:38.877Z,58.58
2022-11-13T19:34:08.186Z,58.72
2022-11-13T19:36:36.635Z,58.96
2022-11-13T19:39:04.354Z,59.14
2022-11-13T19:41:31.402Z,58.99
2022-11-13T19:44:00.122Z,59.05
2022-11-13T19:46:31.713Z,58.90
2022-11-13T19:48:58.719Z,58.77
2022-11-13T19:51:26.601Z,58.99
2022-11-13T19:53:55.840Z,58.81
2022-11-13T19:56:24.887Z,58.58
2022-11-13T19:58:52.786Z,58.71
2022-11-13T20:01:23.154Z,58.67
2022-11-13T20:03:56.408Z,58.54
2022-11-13T20:06:24.338Z,58.57
2022-11-13T20:08:51.606Z,58.49
2022-11-13T20:11:18.824Z,58.72
2022-11-13T20:13:46.243Z,58.70
2022-11-13T20:16:15.727Z,58.40
2022-11-13T20:18:44.246Z,58.63
2022-11-13T20:21:12.886Z,58.69
2022-11-13T20:23:40.352Z,59.25
2022-11-13T20:26:13.448Z,59.24
2022-11-13T20:28:40.641Z,59.52
2022-11-13T20:31:16.174Z,59.13
2022-11-13T20:33:43.731Z,59.14
2022-11-13T20:36:13.397Z,59.16
2022-11-13T20:38:40.639Z,58.73
2022-11-13T20:41:10.815Z,58.71
2022-11-13T20:43:37.994Z,58.35
2022-11-13T20:46:07.814Z,58.31
2022-11-13T20:48:35.140Z,57.85
2022-11-13T20:51:07.422Z,57.86
2022-11-13T20:53:36.087Z,57.49
2022-11-13T20:56:03.733Z,57.27
2022-11-13T20:58:31.622Z,57.05
2022-11-13T21:01:02.851Z,56.81
2022-11-13T21:03:29.878Z,56.65
2022-11-13T21:05:56.859Z,56.73
2022-11-13T21:08:24.231Z,56.71
2022-11-13T21:10:52.642Z,56.35
2022-11-13T21:13:19.718Z,56.41
2022-11-13T21:15:46.702Z,56.19
2022-11-13T21:18:13.668Z,55.98
2022-11-13T21:20:40.705Z,55.99
2022-11-13T21:23:07.654Z,55.94
2022-11-13T21:25:34.704Z,56.16
2022-11-13T21:28:03.875Z,56.07
2022-11-13T21:30:30.851Z,56.04
2022-11-13T21:32:59.146Z,55.47
2022-11-13T21:35:27.185Z,55.67
2022-11-13T21:37:54.629Z,55.72
2022-11-13T21:40:22.638Z,55.94
2022-11-13T21:42:49.539Z,55.50
2022-11-13T21:45:17.858Z,55.53
2022-11-13T21:47:44.807Z,55.83
2022-11-13T21:50:12.170Z,55.59
2022-11-13T21:52:39.137Z,55.36
2022-11-13T21:55:07.678Z,55.61
2022-11-13T21:57:34.633Z,55.55
2022-11-13T22:00:01.722Z,55.33
2022-11-13T22:02:30.176Z,55.10
2022-11-13T22:04:57.197Z,55.32
2022-11-13T22:07:24.182Z,55.29
2022-11-13T22:09:51.142Z,55.32
2022-11-13T22:12:18.125Z,55.10
2022-11-13T22:14:45.121Z,55.23
2022-11-13T22:17:12.068Z,55.16
2022-11-13T22:19:40.414Z,55.05
2022-11-13T22:22:07.341Z,55.26
2022-11-13T22:24:34.295Z,55.38
2022-11-13T22:27:01.250Z,55.30
2022-11-13T22:29:28.171Z,55.40
2022-11-13T22:31:55.088Z,55.61
2022-11-13T22:34:21.999Z,55.73
2022-11-13T22:36:50.337Z,55.47
2022-11-13T22:39:17.317Z,55.45
2022-11-13T22:41:44.221Z,55.67
2022-11-13T22:44:14.222Z,55.80
2022-11-13T22:46:41.308Z,55.67
2022-11-13T22:49:11.297Z,55.89
2022-11-13T22:51:41.478Z,56.08
2022-11-13T22:54:12.225Z,56.09
2022-11-13T22:56:40.999Z,56.40
2022-11-13T22:59:11.312Z,56.44
2022-11-13T23:01:40.857Z,56.77
2022-11-13T23:04:12.783Z,56.55
2022-11-13T23:06:39.821Z,56.72
2022-11-13T23:09:06.897Z,56.90
2022-11-13T23:11:40.051Z,56.68
2022-11-13T23:14:12.066Z,56.79
2022-11-13T23:16:39.075Z,57.07
2022-11-13T23:19:06.015Z,57.38
2022-11-13T23:21:33.366Z,57.43
2022-11-13T23:24:00.540Z,57.54
2022-11-13T23:26:28.406Z,57.74
2022-11-13T23:28:57.512Z,57.93
2022-11-13T23:31:24.869Z,57.76
2022-11-13T23:33:51.885Z,57.81
2022-11-13T23:36:18.933Z,58.03
2022-11-13T23:38:46.301Z,57.89
2022-11-13T23:41:13.497Z,57.84
2022-11-13T23:44:07.776Z,57.66
2022-11-13T23:46:29.037Z,57.89
2022-11-13T23:48:56.354Z,57.87
2022-11-13T23:51:23.270Z,57.76
2022-11-13T23:53:50.187Z,57.62
2022-11-13T23:56:17.089Z,57.61
2022-11-13T23:58:44.133Z,57.59
